sensor_id;sensor_type;location;lat;lon;timestamp;pressure;altitude;pressure_sealevel;temperature;humidity
10720;BME280;5411;58.386;15.560;2023-04-05T00:01:33;101507.84;;;1.06;98.73
10720;BME280;5411;58.386;15.560;2023-04-05T00:04:03;101507.44;;;0.99;99.56
10720;BME280;5411;58.386;15.560;2023-04-05T00:06:33;101503.81;;;0.89;98.59
10720;BME280;5411;58.386;15.560;2023-04-05T00:09:04;101499.81;;;0.84;99.47
10720;BME280;5411;58.386;15.560;2023-04-05T00:11:35;101507.34;;;0.77;99.71
10720;BME280;5411;58.386;15.560;2023-04-05T00:14:04;101509.56;;;0.70;100.00
10720;BME280;5411;58.386;15.560;2023-04-05T00:16:33;101501.47;;;0.61;100.00
10720;BME280;5411;58.386;15.560;2023-04-05T00:19:02;101502.53;;;0.58;100.00
10720;BME280;5411;58.386;15.560;2023-04-05T00:21:31;101511.50;;;0.56;100.00
10720;BME280;5411;58.386;15.560;2023-04-05T00:24:00;101497.94;;;0.49;100.00
10720;BME280;5411;58.386;15.560;2023-04-05T00:26:30;101494.69;;;0.46;100.00
10720;BME280;5411;58.386;15.560;2023-04-05T00:28:59;101499.56;;;0.39;100.00
10720;BME280;5411;58.386;15.560;2023-04-05T00:31:28;101498.09;;;0.35;100.00
10720;BME280;5411;58.386;15.560;2023-04-05T00:33:56;101500.19;;;0.30;100.00
10720;BME280;5411;58.386;15.560;2023-04-05T00:36:25;101486.44;;;0.26;100.00
10720;BME280;5411;58.386;15.560;2023-04-05T00:38:53;101492.97;;;0.21;100.00
10720;BME280;5411;58.386;15.560;2023-04-05T00:41:22;101495.78;;;0.18;100.00
10720;BME280;5411;58.386;15.560;2023-04-05T00:43:51;101490.75;;;0.15;100.00
10720;BME280;5411;58.386;15.560;2023-04-05T00:46:20;101492.78;;;0.11;100.00
10720;BME280;5411;58.386;15.560;2023-04-05T00:48:49;101489.50;;;0.08;100.00
10720;BME280;5411;58.386;15.560;2023-04-05T00:51:17;101487.72;;;0.08;100.00
10720;BME280;5411;58.386;15.560;2023-04-05T00:53:46;101477.41;;;0.05;100.00
10720;BME280;5411;58.386;15.560;2023-04-05T00:56:19;101484.44;;;0.05;100.00
10720;BME280;5411;58.386;15.560;2023-04-05T00:58:48;101482.78;;;0.04;100.00
10720;BME280;5411;58.386;15.560;2023-04-05T01:01:20;101487.28;;;0.02;100.00
10720;BME280;5411;58.386;15.560;2023-04-05T01:03:52;101491.84;;;-0.01;100.00
10720;BME280;5411;58.386;15.560;2023-04-05T01:06:39;101489.63;;;-0.07;100.00
10720;BME280;5411;58.386;15.560;2023-04-05T01:09:20;101496.78;;;-0.09;100.00
10720;BME280;5411;58.386;15.560;2023-04-05T01:11:51;101497.91;;;-0.13;100.00
10720;BME280;5411;58.386;15.560;2023-04-05T01:14:42;101498.06;;;-0.14;100.00
10720;BME280;5411;58.386;15.560;2023-04-05T01:17:12;101507.00;;;-0.17;100.00
10720;BME280;5411;58.386;15.560;2023-04-05T01:19:42;101500.34;;;-0.22;100.00
10720;BME280;5411;58.386;15.560;2023-04-05T01:22:39;101498.16;;;-0.28;100.00
10720;BME280;5411;58.386;15.560;2023-04-05T01:25:26;101495.94;;;-0.34;100.00
10720;BME280;5411;58.386;15.560;2023-04-05T01:28:21;101492.47;;;-0.35;100.00
10720;BME280;5411;58.386;15.560;2023-04-05T01:31:01;101490.13;;;-0.40;100.00
10720;BME280;5411;58.386;15.560;2023-04-05T01:33:37;101489.31;;;-0.40;100.00
10720;BME280;5411;58.386;15.560;2023-04-05T01:36:16;101493.59;;;-0.39;100.00
10720;BME280;5411;58.386;15.560;2023-04-05T01:38:48;101486.69;;;-0.40;100.00
10720;BME280;5411;58.386;15.560;2023-04-05T01:41:17;101496.25;;;-0.39;100.00
10720;BME280;5411;58.386;15.560;2023-04-05T01:43:49;101495.28;;;-0.38;100.00
10720;BME280;5411;58.386;15.560;2023-04-05T01:46:20;101494.44;;;-0.39;100.00
10720;BME280;5411;58.386;15.560;2023-04-05T01:48:48;101496.38;;;-0.41;100.00
10720;BME280;5411;58.386;15.560;2023-04-05T01:51:17;101495.41;;;-0.40;100.00
10720;BME280;5411;58.386;15.560;2023-04-05T01:53:46;101488.59;;;-0.42;100.00
10720;BME280;5411;58.386;15.560;2023-04-05T01:56:14;101485.22;;;-0.44;100.00
10720;BME280;5411;58.386;15.560;2023-04-05T01:58:43;101484.16;;;-0.42;100.00
10720;BME280;5411;58.386;15.560;2023-04-05T02:01:11;101491.50;;;-0.47;100.00
10720;BME280;5411;58.386;15.560;2023-04-05T02:03:41;101487.19;;;-0.48;100.00
10720;BME280;5411;58.386;15.560;2023-04-05T02:06:10;101481.19;;;-0.50;100.00
10720;BME280;5411;58.386;15.560;2023-04-05T02:08:38;101479.41;;;-0.49;100.00
10720;BME280;5411;58.386;15.560;2023-04-05T02:11:06;101484.78;;;-0.51;100.00
10720;BME280;5411;58.386;15.560;2023-04-05T02:13:36;101474.50;;;-0.54;100.00
10720;BME280;5411;58.386;15.560;2023-04-05T02:16:05;101473.00;;;-0.58;100.00
10720;BME280;5411;58.386;15.560;2023-04-05T02:18:33;101477.41;;;-0.58;100.00
10720;BME280;5411;58.386;15.560;2023-04-05T02:21:09;101473.41;;;-0.64;100.00
10720;BME280;5411;58.386;15.560;2023-04-05T02:23:37;101466.81;;;-0.69;100.00
10720;BME280;5411;58.386;15.560;2023-04-05T02:26:05;101473.19;;;-0.74;100.00
10720;BME280;5411;58.386;15.560;2023-04-05T02:28:34;101471.50;;;-0.75;100.00
10720;BME280;5411;58.386;15.560;2023-04-05T02:31:07;101467.63;;;-0.82;100.00
10720;BME280;5411;58.386;15.560;2023-04-05T02:33:36;101471.38;;;-0.86;100.00
10720;BME280;5411;58.386;15.560;2023-04-05T02:36:06;101471.59;;;-0.89;100.00
10720;BME280;5411;58.386;15.560;2023-04-05T02:38:36;101468.22;;;-0.91;100.00
10720;BME280;5411;58.386;15.560;2023-04-05T02:41:07;101467.88;;;-0.99;100.00
10720;BME280;5411;58.386;15.560;2023-04-05T02:43:38;101469.69;;;-0.99;100.00
10720;BME280;5411;58.386;15.560;2023-04-05T02:46:08;101468.09;;;-1.02;100.00
10720;BME280;5411;58.386;15.560;2023-04-05T02:48:37;101458.84;;;-1.08;100.00
10720;BME280;5411;58.386;15.560;2023-04-05T02:51:05;101465.75;;;-1.07;100.00
10720;BME280;5411;58.386;15.560;2023-04-05T02:53:36;101461.56;;;-1.09;100.00
10720;BME280;5411;58.386;15.560;2023-04-05T02:56:05;101468.69;;;-1.11;100.00
10720;BME280;5411;58.386;15.560;2023-04-05T02:58:34;101464.50;;;-1.14;100.00
10720;BME280;5411;58.386;15.560;2023-04-05T03:01:02;101455.97;;;-1.17;100.00
10720;BME280;5411;58.386;15.560;2023-04-05T03:03:34;101459.84;;;-1.23;100.00
10720;BME280;5411;58.386;15.560;2023-04-05T03:06:05;101457.22;;;-1.23;100.00
10720;BME280;5411;58.386;15.560;2023-04-05T03:08:38;101458.25;;;-1.25;100.00
10720;BME280;5411;58.386;15.560;2023-04-05T03:11:10;101460.13;;;-1.27;100.00
10720;BME280;5411;58.386;15.560;2023-04-05T03:13:40;101459.38;;;-1.29;100.00
10720;BME280;5411;58.386;15.560;2023-04-05T03:16:09;101458.63;;;-1.31;100.00
10720;BME280;5411;58.386;15.560;2023-04-05T03:18:38;101454.47;;;-1.34;100.00
10720;BME280;5411;58.386;15.560;2023-04-05T03:21:06;101443.50;;;-1.40;100.00
10720;BME280;5411;58.386;15.560;2023-04-05T03:23:39;101453.06;;;-1.39;100.00
10720;BME280;5411;58.386;15.560;2023-04-05T03:26:08;101440.88;;;-1.40;100.00
10720;BME280;5411;58.386;15.560;2023-04-05T03:28:37;101442.75;;;-1.42;100.00
10720;BME280;5411;58.386;15.560;2023-04-05T03:31:12;101449.78;;;-1.43;100.00
10720;BME280;5411;58.386;15.560;2023-04-05T03:33:40;101454.19;;;-1.44;100.00
10720;BME280;5411;58.386;15.560;2023-04-05T03:36:11;101448.31;;;-1.47;100.00
10720;BME280;5411;58.386;15.560;2023-04-05T03:38:45;101450.09;;;-1.48;100.00
10720;BME280;5411;58.386;15.560;2023-04-05T03:41:13;101447.34;;;-1.46;100.00
10720;BME280;5411;58.386;15.560;2023-04-05T03:43:44;101458.69;;;-1.46;100.00
10720;BME280;5411;58.386;15.560;2023-04-05T03:46:13;101442.31;;;-1.49;100.00
10720;BME280;5411;58.386;15.560;2023-04-05T03:48:47;101441.28;;;-1.47;100.00
10720;BME280;5411;58.386;15.560;2023-04-05T03:51:16;101436.75;;;-1.45;100.00
10720;BME280;5411;58.386;15.560;2023-04-05T03:53:49;101425.75;;;-1.50;100.00
10720;BME280;5411;58.386;15.560;2023-04-05T03:56:18;101427.63;;;-1.52;100.00
10720;BME280;5411;58.386;15.560;2023-04-05T03:58:46;101426.03;;;-1.54;100.00
10720;BME280;5411;58.386;15.560;2023-04-05T04:01:15;101428.66;;;-1.54;100.00
10720;BME280;5411;58.386;15.560;2023-04-05T04:03:44;101425.19;;;-1.55;100.00
10720;BME280;5411;58.386;15.560;2023-04-05T04:06:13;101441.09;;;-1.58;100.00
10720;BME280;5411;58.386;15.560;2023-04-05T04:08:44;101436.94;;;-1.60;100.00
10720;BME280;5411;58.386;15.560;2023-04-05T04:11:14;101435.97;;;-1.59;100.00
10720;BME280;5411;58.386;15.560;2023-04-05T04:13:42;101438.59;;;-1.59;100.00
10720;BME280;5411;58.386;15.560;2023-04-05T04:16:11;101437.56;;;-1.57;100.00
10720;BME280;5411;58.386;15.560;2023-04-05T04:18:39;101447.19;;;-1.57;100.00
10720;BME280;5411;58.386;15.560;2023-04-05T04:21:10;101447.19;;;-1.57;100.00
10720;BME280;5411;58.386;15.560;2023-04-05T04:23:39;101445.84;;;-1.63;100.00
10720;BME280;5411;58.386;15.560;2023-04-05T04:26:11;101443.81;;;-1.59;100.00
10720;BME280;5411;58.386;15.560;2023-04-05T04:28:42;101435.88;;;-1.58;100.00
10720;BME280;5411;58.386;15.560;2023-04-05T04:31:11;101432.41;;;-1.58;100.00
10720;BME280;5411;58.386;15.560;2023-04-05T04:33:40;101443.81;;;-1.59;100.00
10720;BME280;5411;58.386;15.560;2023-04-05T04:36:10;101446.75;;;-1.64;100.00
10720;BME280;5411;58.386;15.560;2023-04-05T04:38:40;101454.44;;;-1.61;100.00
10720;BME280;5411;58.386;15.560;2023-04-05T04:41:10;101458.63;;;-1.58;100.00
10720;BME280;5411;58.386;15.560;2023-04-05T04:43:39;101453.47;;;-1.60;100.00
10720;BME280;5411;58.386;15.560;2023-04-05T04:46:11;101449.38;;;-1.64;100.00
10720;BME280;5411;58.386;15.560;2023-04-05T04:48:41;101465.97;;;-1.63;100.00
10720;BME280;5411;58.386;15.560;2023-04-05T04:51:09;101451.81;;;-1.61;100.00
10720;BME280;5411;58.386;15.560;2023-04-05T04:53:38;101465.66;;;-1.59;100.00
10720;BME280;5411;58.386;15.560;2023-04-05T04:56:15;101453.19;;;-1.55;100.00
10720;BME280;5411;58.386;15.560;2023-04-05T04:58:43;101458.25;;;-1.52;100.00
10720;BME280;5411;58.386;15.560;2023-04-05T05:01:13;101461.63;;;-1.50;100.00
10720;BME280;5411;58.386;15.560;2023-04-05T05:03:42;101449.25;;;-1.48;100.00
10720;BME280;5411;58.386;15.560;2023-04-05T05:06:15;101468.81;;;-1.39;100.00
10720;BME280;5411;58.386;15.560;2023-04-05T05:08:43;101466.94;;;-1.37;100.00
10720;BME280;5411;58.386;15.560;2023-04-05T05:11:13;101462.09;;;-1.31;100.00
10720;BME280;5411;58.386;15.560;2023-04-05T05:13:42;101460.31;;;-1.30;100.00
10720;BME280;5411;58.386;15.560;2023-04-05T05:16:16;101459.84;;;-1.23;100.00
10720;BME280;5411;58.386;15.560;2023-04-05T05:18:47;101458.50;;;-1.16;100.00
10720;BME280;5411;58.386;15.560;2023-04-05T05:21:16;101457.44;;;-1.13;100.00
10720;BME280;5411;58.386;15.560;2023-04-05T05:23:45;101458.53;;;-1.03;100.00
10720;BME280;5411;58.386;15.560;2023-04-05T05:26:13;101454.56;;;-0.96;100.00
10720;BME280;5411;58.386;15.560;2023-04-05T05:28:42;101454.88;;;-0.88;100.00
10720;BME280;5411;58.386;15.560;2023-04-05T05:31:11;101452.47;;;-0.78;100.00
10720;BME280;5411;58.386;15.560;2023-04-05T05:33:45;101452.63;;;-0.67;100.00
10720;BME280;5411;58.386;15.560;2023-04-05T05:36:15;101461.47;;;-0.55;100.00
10720;BME280;5411;58.386;15.560;2023-04-05T05:38:45;101450.22;;;-0.45;100.00
10720;BME280;5411;58.386;15.560;2023-04-05T05:41:14;101451.16;;;-0.33;98.90
10720;BME280;5411;58.386;15.560;2023-04-05T05:43:44;101454.81;;;-0.23;97.75
10720;BME280;5411;58.386;15.560;2023-04-05T05:46:15;101450.59;;;-0.13;96.95
10720;BME280;5411;58.386;15.560;2023-04-05T05:48:53;101458.50;;;0.00;96.31
10720;BME280;5411;58.386;15.560;2023-04-05T05:51:22;101439.63;;;0.06;95.23
10720;BME280;5411;58.386;15.560;2023-04-05T05:53:51;101451.06;;;0.18;95.01
10720;BME280;5411;58.386;15.560;2023-04-05T05:56:19;101444.34;;;0.26;94.56
10720;BME280;5411;58.386;15.560;2023-04-05T05:58:50;101436.41;;;0.39;95.75
10720;BME280;5411;58.386;15.560;2023-04-05T06:01:19;101442.16;;;0.44;95.70
10720;BME280;5411;58.386;15.560;2023-04-05T06:03:52;101436.66;;;0.47;93.90
10720;BME280;5411;58.386;15.560;2023-04-05T06:06:22;101452.41;;;0.60;95.05
10720;BME280;5411;58.386;15.560;2023-04-05T06:08:52;101449.00;;;0.70;93.94
10720;BME280;5411;58.386;15.560;2023-04-05T06:11:20;101442.44;;;0.76;92.02
10720;BME280;5411;58.386;15.560;2023-04-05T06:13:50;101452.28;;;0.85;91.29
10720;BME280;5411;58.386;15.560;2023-04-05T06:16:21;101455.06;;;0.95;90.73
10720;BME280;5411;58.386;15.560;2023-04-05T06:18:49;101446.63;;;1.02;89.26
10720;BME280;5411;58.386;15.560;2023-04-05T06:21:20;101450.09;;;1.03;87.27
10720;BME280;5411;58.386;15.560;2023-04-05T06:23:48;101445.91;;;1.12;87.65
10720;BME280;5411;58.386;15.560;2023-04-05T06:26:18;101447.75;;;1.22;85.48
10720;BME280;5411;58.386;15.560;2023-04-05T06:28:49;101443.59;;;1.31;84.41
10720;BME280;5411;58.386;15.560;2023-04-05T06:31:19;101440.59;;;1.35;82.61
10720;BME280;5411;58.386;15.560;2023-04-05T06:33:54;101431.72;;;1.36;80.26
10720;BME280;5411;58.386;15.560;2023-04-05T06:36:24;101438.81;;;1.47;79.99
10720;BME280;5411;58.386;15.560;2023-04-05T06:38:53;101425.88;;;1.55;80.04
10720;BME280;5411;58.386;15.560;2023-04-05T06:41:21;101427.09;;;1.62;78.72
10720;BME280;5411;58.386;15.560;2023-04-05T06:43:50;101423.88;;;1.70;78.41
10720;BME280;5411;58.386;15.560;2023-04-05T06:46:18;101424.31;;;1.75;77.33
10720;BME280;5411;58.386;15.560;2023-04-05T06:48:47;101422.69;;;1.85;76.61
10720;BME280;5411;58.386;15.560;2023-04-05T06:51:17;101426.97;;;1.97;75.88
10720;BME280;5411;58.386;15.560;2023-04-05T06:53:47;101436.56;;;2.09;73.99
10720;BME280;5411;58.386;15.560;2023-04-05T06:56:18;101425.63;;;2.14;72.79
10720;BME280;5411;58.386;15.560;2023-04-05T06:58:49;101433.91;;;2.21;71.93
10720;BME280;5411;58.386;15.560;2023-04-05T07:01:18;101420.47;;;2.24;68.86
10720;BME280;5411;58.386;15.560;2023-04-05T07:03:46;101426.69;;;2.34;69.51
10720;BME280;5411;58.386;15.560;2023-04-05T07:06:14;101429.41;;;2.43;70.38
10720;BME280;5411;58.386;15.560;2023-04-05T07:08:42;101426.50;;;2.58;70.52
10720;BME280;5411;58.386;15.560;2023-04-05T07:11:16;101424.94;;;2.66;69.76
10720;BME280;5411;58.386;15.560;2023-04-05T07:13:46;101421.88;;;2.71;67.05
10720;BME280;5411;58.386;15.560;2023-04-05T07:16:14;101414.56;;;2.74;68.68
10720;BME280;5411;58.386;15.560;2023-04-05T07:18:45;101412.81;;;2.84;69.37
10720;BME280;5411;58.386;15.560;2023-04-05T07:21:13;101415.41;;;2.96;68.07
10720;BME280;5411;58.386;15.560;2023-04-05T07:23:42;101409.50;;;3.03;67.37
10720;BME280;5411;58.386;15.560;2023-04-05T07:26:19;101421.28;;;2.99;65.82
10720;BME280;5411;58.386;15.560;2023-04-05T07:28:48;101398.34;;;3.00;65.46
10720;BME280;5411;58.386;15.560;2023-04-05T07:31:17;101405.00;;;3.15;65.78
10720;BME280;5411;58.386;15.560;2023-04-05T07:33:45;101415.69;;;3.34;63.41
10720;BME280;5411;58.386;15.560;2023-04-05T07:36:14;101403.25;;;3.46;62.06
10720;BME280;5411;58.386;15.560;2023-04-05T07:38:42;101422.00;;;3.43;61.63
10720;BME280;5411;58.386;15.560;2023-04-05T07:41:11;101407.91;;;3.33;59.61
10720;BME280;5411;58.386;15.560;2023-04-05T07:43:44;101403.81;;;3.29;59.82
10720;BME280;5411;58.386;15.560;2023-04-05T07:46:16;101409.81;;;3.31;60.42
10720;BME280;5411;58.386;15.560;2023-04-05T07:48:45;101414.44;;;3.38;59.99
10720;BME280;5411;58.386;15.560;2023-04-05T07:51:15;101400.25;;;3.39;60.36
10720;BME280;5411;58.386;15.560;2023-04-05T07:53:43;101409.28;;;3.37;59.73
10720;BME280;5411;58.386;15.560;2023-04-05T07:56:14;101403.63;;;3.41;59.92
10720;BME280;5411;58.386;15.560;2023-04-05T07:58:44;101403.75;;;3.40;59.38
10720;BME280;5411;58.386;15.560;2023-04-05T08:01:13;101406.06;;;3.54;60.67
10720;BME280;5411;58.386;15.560;2023-04-05T08:03:42;101390.75;;;3.57;59.03
10720;BME280;5411;58.386;15.560;2023-04-05T08:06:11;101401.38;;;3.67;58.96
10720;BME280;5411;58.386;15.560;2023-04-05T08:08:40;101394.03;;;3.71;58.68
10720;BME280;5411;58.386;15.560;2023-04-05T08:11:10;101394.44;;;3.76;57.53
10720;BME280;5411;58.386;15.560;2023-04-05T08:13:38;101396.53;;;3.72;57.45
10720;BME280;5411;58.386;15.560;2023-04-05T08:16:10;101396.44;;;3.83;56.52
10720;BME280;5411;58.386;15.560;2023-04-05T08:18:39;101402.75;;;4.02;56.94
10720;BME280;5411;58.386;15.560;2023-04-05T08:21:08;101395.97;;;4.18;56.04
10720;BME280;5411;58.386;15.560;2023-04-05T08:23:36;101388.63;;;4.41;56.95
10720;BME280;5411;58.386;15.560;2023-04-05T08:26:04;101381.53;;;4.61;55.36
10720;BME280;5411;58.386;15.560;2023-04-05T08:28:33;101382.38;;;4.81;54.24
10720;BME280;5411;58.386;15.560;2023-04-05T08:31:02;101384.59;;;4.95;54.61
10720;BME280;5411;58.386;15.560;2023-04-05T08:33:32;101383.75;;;4.94;51.70
10720;BME280;5411;58.386;15.560;2023-04-05T08:36:03;101383.91;;;4.93;51.94
10720;BME280;5411;58.386;15.560;2023-04-05T08:38:32;101374.66;;;5.07;52.67
10720;BME280;5411;58.386;15.560;2023-04-05T08:41:06;101370.59;;;5.22;52.48
10720;BME280;5411;58.386;15.560;2023-04-05T08:43:53;101371.13;;;5.45;53.01
10720;BME280;5411;58.386;15.560;2023-04-05T08:46:27;101374.41;;;5.56;52.48
10720;BME280;5411;58.386;15.560;2023-04-05T08:48:59;101360.16;;;5.57;49.56
10720;BME280;5411;58.386;15.560;2023-04-05T08:51:27;101361.84;;;5.58;49.82
10720;BME280;5411;58.386;15.560;2023-04-05T08:54:00;101371.22;;;5.53;49.56
10720;BME280;5411;58.386;15.560;2023-04-05T08:56:33;101367.25;;;5.66;49.73
10720;BME280;5411;58.386;15.560;2023-04-05T08:59:03;101369.91;;;5.66;48.59
10720;BME280;5411;58.386;15.560;2023-04-05T09:01:33;101366.78;;;5.81;48.80
10720;BME280;5411;58.386;15.560;2023-04-05T09:04:10;101360.44;;;5.91;49.88
10720;BME280;5411;58.386;15.560;2023-04-05T09:06:39;101369.25;;;5.92;48.84
10720;BME280;5411;58.386;15.560;2023-04-05T09:09:07;101360.19;;;5.85;47.54
10720;BME280;5411;58.386;15.560;2023-04-05T09:11:36;101360.91;;;5.77;48.13
10720;BME280;5411;58.386;15.560;2023-04-05T09:14:07;101361.25;;;5.64;48.39
10720;BME280;5411;58.386;15.560;2023-04-05T09:16:38;101361.59;;;5.79;48.82
10720;BME280;5411;58.386;15.560;2023-04-05T09:19:09;101352.38;;;5.83;47.01
10720;BME280;5411;58.386;15.560;2023-04-05T09:21:57;101348.16;;;5.90;48.12
10720;BME280;5411;58.386;15.560;2023-04-05T09:24:30;101357.31;;;6.05;47.32
10720;BME280;5411;58.386;15.560;2023-04-05T09:27:04;101344.22;;;5.94;45.52
10720;BME280;5411;58.386;15.560;2023-04-05T09:29:34;101357.81;;;5.82;46.57
10720;BME280;5411;58.386;15.560;2023-04-05T09:32:03;101358.03;;;5.70;46.17
10720;BME280;5411;58.386;15.560;2023-04-05T09:34:34;101357.06;;;5.62;47.30
10720;BME280;5411;58.386;15.560;2023-04-05T09:37:11;101354.91;;;5.75;46.80
10720;BME280;5411;58.386;15.560;2023-04-05T09:39:41;101352.63;;;5.90;47.66
10720;BME280;5411;58.386;15.560;2023-04-05T09:42:11;101340.09;;;6.27;47.58
10720;BME280;5411;58.386;15.560;2023-04-05T09:44:51;101347.75;;;6.66;45.59
10720;BME280;5411;58.386;15.560;2023-04-05T09:47:20;101340.81;;;6.65;43.56
10720;BME280;5411;58.386;15.560;2023-04-05T09:49:52;101346.25;;;6.46;42.11
10720;BME280;5411;58.386;15.560;2023-04-05T09:52:23;101363.00;;;6.11;42.50
10720;BME280;5411;58.386;15.560;2023-04-05T09:54:53;101346.38;;;5.81;44.05
10720;BME280;5411;58.386;15.560;2023-04-05T09:57:22;101342.09;;;5.70;44.19
10720;BME280;5411;58.386;15.560;2023-04-05T09:59:52;101337.75;;;5.69;44.54
10720;BME280;5411;58.386;15.560;2023-04-05T10:02:22;101334.81;;;5.72;45.29
10720;BME280;5411;58.386;15.560;2023-04-05T10:04:53;101324.09;;;5.64;45.31
10720;BME280;5411;58.386;15.560;2023-04-05T10:07:21;101327.53;;;5.74;44.89
10720;BME280;5411;58.386;15.560;2023-04-05T10:09:50;101326.66;;;5.84;43.32
10720;BME280;5411;58.386;15.560;2023-04-05T10:12:23;101323.44;;;5.80;43.33
10720;BME280;5411;58.386;15.560;2023-04-05T10:14:55;101325.19;;;5.62;40.96
10720;BME280;5411;58.386;15.560;2023-04-05T10:17:27;101331.13;;;5.56;42.15
10720;BME280;5411;58.386;15.560;2023-04-05T10:20:08;101320.69;;;5.45;42.06
10720;BME280;5411;58.386;15.560;2023-04-05T10:22:45;101310.69;;;5.29;42.33
10720;BME280;5411;58.386;15.560;2023-04-05T10:25:23;101300.53;;;5.15;43.33
10720;BME280;5411;58.386;15.560;2023-04-05T10:28:03;101292.31;;;5.08;43.04
10720;BME280;5411;58.386;15.560;2023-04-05T10:30:35;101290.41;;;5.00;43.38
10720;BME280;5411;58.386;15.560;2023-04-05T10:33:10;101291.66;;;4.96;43.70
10720;BME280;5411;58.386;15.560;2023-04-05T10:35:52;101281.31;;;4.93;44.46
10720;BME280;5411;58.386;15.560;2023-04-05T10:38:24;101289.09;;;5.14;45.35
10720;BME280;5411;58.386;15.560;2023-04-05T10:41:02;101283.19;;;5.20;44.68
10720;BME280;5411;58.386;15.560;2023-04-05T10:43:36;101288.53;;;5.48;44.40
10720;BME280;5411;58.386;15.560;2023-04-05T10:46:06;101275.59;;;5.62;44.48
10720;BME280;5411;58.386;15.560;2023-04-05T10:48:40;101274.03;;;5.69;42.84
10720;BME280;5411;58.386;15.560;2023-04-05T10:51:15;101273.25;;;5.59;42.67
10720;BME280;5411;58.386;15.560;2023-04-05T10:53:47;101268.78;;;5.60;44.00
10720;BME280;5411;58.386;15.560;2023-04-05T10:56:19;101266.88;;;5.52;43.18
10720;BME280;5411;58.386;15.560;2023-04-05T10:58:49;101272.09;;;5.44;42.26
10720;BME280;5411;58.386;15.560;2023-04-05T11:01:19;101272.81;;;5.36;43.44
10720;BME280;5411;58.386;15.560;2023-04-05T11:03:51;101273.34;;;5.40;43.51
10720;BME280;5411;58.386;15.560;2023-04-05T11:06:31;101262.34;;;5.35;43.52
10720;BME280;5411;58.386;15.560;2023-04-05T11:09:16;101257.00;;;5.45;44.00
10720;BME280;5411;58.386;15.560;2023-04-05T11:11:49;101251.03;;;5.60;42.97
10720;BME280;5411;58.386;15.560;2023-04-05T11:14:19;101257.88;;;5.63;42.54
10720;BME280;5411;58.386;15.560;2023-04-05T11:16:50;101247.09;;;5.64;40.49
10720;BME280;5411;58.386;15.560;2023-04-05T11:19:20;101240.75;;;5.75;40.53
10720;BME280;5411;58.386;15.560;2023-04-05T11:22:10;101246.94;;;5.93;41.95
10720;BME280;5411;58.386;15.560;2023-04-05T11:24:49;101256.38;;;6.05;41.35
10720;BME280;5411;58.386;15.560;2023-04-05T11:27:24;101254.75;;;6.13;40.37
10720;BME280;5411;58.386;15.560;2023-04-05T11:29:55;101249.50;;;5.85;41.09
10720;BME280;5411;58.386;15.560;2023-04-05T11:32:37;101253.59;;;5.52;43.63
10720;BME280;5411;58.386;15.560;2023-04-05T11:35:12;101261.47;;;5.44;45.85
10720;BME280;5411;58.386;15.560;2023-04-05T11:38:04;101255.19;;;5.45;46.43
10720;BME280;5411;58.386;15.560;2023-04-05T11:40:35;101253.75;;;5.51;45.73
10720;BME280;5411;58.386;15.560;2023-04-05T11:43:07;101261.34;;;5.63;47.39
10720;BME280;5411;58.386;15.560;2023-04-05T11:45:38;101255.19;;;5.72;47.84
10720;BME280;5411;58.386;15.560;2023-04-05T11:48:08;101262.13;;;5.73;46.45
10720;BME280;5411;58.386;15.560;2023-04-05T11:50:39;101253.94;;;5.67;47.58
10720;BME280;5411;58.386;15.560;2023-04-05T11:53:14;101251.50;;;5.56;46.52
10720;BME280;5411;58.386;15.560;2023-04-05T11:55:47;101234.72;;;5.28;47.04
10720;BME280;5411;58.386;15.560;2023-04-05T11:58:18;101255.16;;;5.18;48.55
10720;BME280;5411;58.386;15.560;2023-04-05T12:00:57;101258.81;;;5.17;49.72
10720;BME280;5411;58.386;15.560;2023-04-05T12:03:28;101239.91;;;5.20;49.46
10720;BME280;5411;58.386;15.560;2023-04-05T12:05:58;101250.09;;;5.24;50.52
10720;BME280;5411;58.386;15.560;2023-04-05T12:08:39;101261.84;;;5.22;50.48
10720;BME280;5411;58.386;15.560;2023-04-05T12:11:09;101256.16;;;5.17;50.59
10720;BME280;5411;58.386;15.560;2023-04-05T12:13:40;101269.97;;;5.11;54.39
10720;BME280;5411;58.386;15.560;2023-04-05T12:16:11;101270.13;;;5.09;55.16
10720;BME280;5411;58.386;15.560;2023-04-05T12:18:39;101274.00;;;4.78;57.15
10720;BME280;5411;58.386;15.560;2023-04-05T12:21:08;101272.91;;;4.61;58.95
10720;BME280;5411;58.386;15.560;2023-04-05T12:23:38;101265.34;;;4.56;59.97
10720;BME280;5411;58.386;15.560;2023-04-05T12:26:07;101261.88;;;4.56;60.95
10720;BME280;5411;58.386;15.560;2023-04-05T12:28:55;101274.44;;;4.44;63.88
10720;BME280;5411;58.386;15.560;2023-04-05T12:31:37;101274.56;;;4.43;64.00
10720;BME280;5411;58.386;15.560;2023-04-05T12:34:11;101253.53;;;4.32;65.48
10720;BME280;5411;58.386;15.560;2023-04-05T12:36:43;101259.13;;;4.09;65.62
10720;BME280;5411;58.386;15.560;2023-04-05T12:39:15;101263.78;;;3.67;68.79
10720;BME280;5411;58.386;15.560;2023-04-05T12:41:44;101273.31;;;3.39;72.08
10720;BME280;5411;58.386;15.560;2023-04-05T12:44:14;101278.13;;;3.25;75.10
10720;BME280;5411;58.386;15.560;2023-04-05T12:46:45;101283.34;;;3.05;77.78
10720;BME280;5411;58.386;15.560;2023-04-05T12:49:14;101276.59;;;2.92;82.48
10720;BME280;5411;58.386;15.560;2023-04-05T12:51:45;101281.94;;;2.60;86.46
10720;BME280;5411;58.386;15.560;2023-04-05T12:54:20;101279.31;;;2.28;91.74
10720;BME280;5411;58.386;15.560;2023-04-05T12:56:49;101278.69;;;2.03;95.21
10720;BME280;5411;58.386;15.560;2023-04-05T12:59:20;101293.16;;;1.77;99.46
10720;BME280;5411;58.386;15.560;2023-04-05T13:01:49;101289.72;;;1.65;100.00
10720;BME280;5411;58.386;15.560;2023-04-05T13:04:17;101272.13;;;1.55;100.00
10720;BME280;5411;58.386;15.560;2023-04-05T13:06:46;101275.22;;;1.49;100.00
10720;BME280;5411;58.386;15.560;2023-04-05T13:09:15;101272.72;;;1.47;100.00
10720;BME280;5411;58.386;15.560;2023-04-05T13:11:43;101267.19;;;1.50;100.00
10720;BME280;5411;58.386;15.560;2023-04-05T13:14:12;101276.44;;;1.56;100.00